createdAt,value
2022-08-09T00:00:06.135Z,26.00
2022-08-09T00:02:34.504Z,26.10
2022-08-09T00:06:18.831Z,26.00
2022-08-09T00:07:44.798Z,26.10
2022-08-09T00:10:08.426Z,26.00
2022-08-09T00:12:39.851Z,26.10
2022-08-09T00:15:14.685Z,25.90
2022-08-09T00:18:05.171Z,25.80
2022-08-09T00:20:14.234Z,25.80
2022-08-09T00:22:47.128Z,25.70
2022-08-09T00:25:23.139Z,25.90
2022-08-09T00:27:48.774Z,25.70
2022-08-09T00:30:24.773Z,25.80
2022-08-09T00:32:49.742Z,25.80
2022-08-09T00:35:20.798Z,25.80
2022-08-09T00:37:50.655Z,25.80
2022-08-09T00:40:20.965Z,25.80
2022-08-09T00:44:11.082Z,25.80
2022-08-09T00:45:21.757Z,25.80
2022-08-09T00:47:51.392Z,25.80
2022-08-09T00:50:21.523Z,25.70
2022-08-09T00:52:54.864Z,25.70
2022-08-09T00:55:32.636Z,25.60
2022-08-09T00:57:59.359Z,25.50
2022-08-09T01:00:28.231Z,25.60
2022-08-09T01:03:30.962Z,25.60
2022-08-09T01:06:17.863Z,25.50
2022-08-09T01:08:51.627Z,25.60
2022-08-09T01:11:36.552Z,25.50
2022-08-09T01:14:09.965Z,25.40
2022-08-09T01:16:47.354Z,25.30
2022-08-09T01:19:51.597Z,25.30
2022-08-09T01:22:16.899Z,25.20
2022-08-09T01:25:12.371Z,25.20
2022-08-09T01:27:44.859Z,25.10
2022-08-09T01:30:28.741Z,25.10
2022-08-09T01:32:51.892Z,25.00
2022-08-09T01:35:42.590Z,25.00
2022-08-09T01:38:15.752Z,24.90
2022-08-09T01:41:06.280Z,25.00
2022-08-09T01:43:51.241Z,24.90
2022-08-09T01:46:12.482Z,24.90
2022-08-09T01:48:45.949Z,24.80
2022-08-09T01:51:23.034Z,24.90
2022-08-09T01:53:53.763Z,24.80
2022-08-09T01:56:26.030Z,24.80
2022-08-09T01:58:58.502Z,24.80
2022-08-09T02:01:58.271Z,24.70
2022-08-09T02:04:03.697Z,24.60
2022-08-09T02:06:54.428Z,24.50
2022-08-09T02:09:25.962Z,24.30
2022-08-09T02:11:58.862Z,24.20
2022-08-09T02:14:31.489Z,24.10
2022-08-09T02:17:15.175Z,24.20
2022-08-09T02:19:35.116Z,24.20
2022-08-09T02:22:06.955Z,24.30
2022-08-09T02:25:42.649Z,24.00
2022-08-09T02:28:18.003Z,24.00
2022-08-09T02:30:53.072Z,24.20
2022-08-09T02:33:38.384Z,24.20
2022-08-09T02:36:04.447Z,24.30
2022-08-09T02:38:37.090Z,24.30
2022-08-09T02:41:12.129Z,23.70
2022-08-09T02:43:54.652Z,23.60
2022-08-09T02:46:18.517Z,23.80
2022-08-09T02:48:50.980Z,23.90
2022-08-09T02:51:24.155Z,24.00
2022-08-09T02:54:01.252Z,24.10
2022-08-09T02:56:32.528Z,24.00
2022-08-09T02:59:05.969Z,23.80
2022-08-09T03:01:43.082Z,24.00
2022-08-09T03:04:19.434Z,24.00
2022-08-09T03:06:46.151Z,23.90
2022-08-09T03:09:20.548Z,23.90
2022-08-09T03:12:10.735Z,24.00
2022-08-09T03:14:21.964Z,23.80
2022-08-09T03:16:54.815Z,23.80
2022-08-09T03:19:59.383Z,23.80
2022-08-09T03:22:03.253Z,23.70
2022-08-09T03:24:51.896Z,23.20
2022-08-09T03:27:04.449Z,23.50
2022-08-09T03:29:57.272Z,23.70
2022-08-09T03:32:09.759Z,23.60
2022-08-09T03:34:39.255Z,23.60
2022-08-09T03:37:54.540Z,23.50
2022-08-09T03:39:48.614Z,23.20
2022-08-09T03:42:13.722Z,23.20
2022-08-09T03:44:44.903Z,23.20
2022-08-09T03:47:15.934Z,23.20
2022-08-09T03:49:58.712Z,23.40
2022-08-09T03:52:19.526Z,23.50
2022-08-09T03:54:53.796Z,23.40
2022-08-09T03:57:25.348Z,23.40
2022-08-09T03:59:56.248Z,23.40
2022-08-09T04:02:29.399Z,23.40
2022-08-09T04:05:06.450Z,23.20
2022-08-09T04:07:33.625Z,23.30
2022-08-09T04:10:05.495Z,23.20
2022-08-09T04:12:52.588Z,22.90
2022-08-09T04:15:39.083Z,22.90
2022-08-09T04:17:57.815Z,22.60
2022-08-09T04:20:27.943Z,22.70
2022-08-09T04:22:59.241Z,22.70
2022-08-09T04:25:29.163Z,22.80
2022-08-09T04:27:59.957Z,22.80
2022-08-09T04:30:30.371Z,22.80
2022-08-09T04:33:01.535Z,22.30
2022-08-09T04:35:32.924Z,22.40
2022-08-09T04:38:03.706Z,22.50
2022-08-09T04:40:54.186Z,22.10
2022-08-09T04:43:20.341Z,22.10
2022-08-09T04:45:53.277Z,22.30
2022-08-09T04:48:23.819Z,22.30
2022-08-09T04:50:53.848Z,22.60
2022-08-09T04:53:23.297Z,22.60
2022-08-09T04:55:58.866Z,22.70
2022-08-09T04:58:25.816Z,22.80
2022-08-09T05:00:56.275Z,22.70
2022-08-09T05:03:40.277Z,22.70
2022-08-09T05:06:07.052Z,22.10
2022-08-09T05:08:30.224Z,22.10
2022-08-09T05:11:01.015Z,22.50
2022-08-09T05:13:32.905Z,22.50
2022-08-09T05:16:03.566Z,22.60
2022-08-09T05:18:42.264Z,22.60
2022-08-09T05:21:09.818Z,22.50
2022-08-09T05:23:53.658Z,22.60
2022-08-09T05:26:08.366Z,22.60
2022-08-09T05:28:39.549Z,22.70
2022-08-09T05:31:09.524Z,22.90
2022-08-09T05:33:42.615Z,22.90
2022-08-09T05:36:10.804Z,22.90
2022-08-09T05:38:41.961Z,22.90
2022-08-09T05:41:13.769Z,22.90
2022-08-09T05:43:48.996Z,23.00
2022-08-09T05:46:16.973Z,23.00
2022-08-09T05:48:48.755Z,23.10
2022-08-09T05:51:45.760Z,23.00
2022-08-09T05:53:56.846Z,22.90
2022-08-09T05:56:21.158Z,22.90
2022-08-09T05:58:57.934Z,23.00
2022-08-09T06:01:34.081Z,23.10
2022-08-09T06:03:59.676Z,23.10
2022-08-09T06:06:30.839Z,23.00
2022-08-09T06:09:02.065Z,22.90
2022-08-09T06:11:40.602Z,23.00
2022-08-09T06:14:05.690Z,22.90
2022-08-09T06:16:35.259Z,22.90
2022-08-09T06:19:05.432Z,22.90
2022-08-09T06:21:35.864Z,22.90
2022-08-09T06:24:07.269Z,23.00
2022-08-09T06:26:38.424Z,23.10
2022-08-09T06:29:14.891Z,23.20
2022-08-09T06:32:17.197Z,23.20
2022-08-09T06:34:13.339Z,23.30
2022-08-09T06:36:44.484Z,23.40
2022-08-09T06:39:14.793Z,23.40
2022-08-09T06:42:08.023Z,23.60
2022-08-09T06:44:18.530Z,23.60
2022-08-09T06:46:55.420Z,23.90
2022-08-09T06:49:29.124Z,24.20
2022-08-09T06:51:52.535Z,24.30
2022-08-09T06:54:22.573Z,24.50
2022-08-09T06:56:53.839Z,24.60
2022-08-09T07:00:50.317Z,24.50
2022-08-09T07:01:59.578Z,24.90
2022-08-09T07:04:27.853Z,25.00
2022-08-09T07:06:59.915Z,25.20
2022-08-09T07:09:55.564Z,25.70
2022-08-09T07:12:01.273Z,26.00
2022-08-09T07:14:30.964Z,26.30
2022-08-09T07:17:01.820Z,26.40
2022-08-09T07:19:31.963Z,26.60
2022-08-09T07:22:02.203Z,27.20
2022-08-09T07:24:40.221Z,27.10
2022-08-09T07:27:04.159Z,26.90
2022-08-09T07:29:37.907Z,27.00
2022-08-09T07:32:07.662Z,27.80
2022-08-09T07:34:37.160Z,28.00
2022-08-09T07:37:10.973Z,28.10
2022-08-09T07:39:40.930Z,28.10
2022-08-09T07:42:11.617Z,28.60
2022-08-09T07:44:53.033Z,28.60
2022-08-09T07:47:12.617Z,28.80
2022-08-09T07:50:05.299Z,29.10
2022-08-09T07:52:17.293Z,29.40
2022-08-09T07:54:51.480Z,28.60
2022-08-09T07:57:17.374Z,28.50
2022-08-09T07:59:52.153Z,28.70
2022-08-09T08:02:19.410Z,29.20
2022-08-09T08:04:53.777Z,28.90
2022-08-09T08:08:43.622Z,29.10
2022-08-09T08:09:55.119Z,29.50
2022-08-09T08:12:29.203Z,29.70
2022-08-09T08:14:56.170Z,30.10
2022-08-09T08:17:54.133Z,30.00
2022-08-09T08:19:58.057Z,30.50
2022-08-09T08:22:28.657Z,30.10
2022-08-09T08:24:58.562Z,29.60
2022-08-09T08:27:28.919Z,30.30
2022-08-09T08:30:00.108Z,30.80
2022-08-09T08:32:31.317Z,30.50
2022-08-09T08:35:03.065Z,30.70
2022-08-09T08:37:41.524Z,31.10
2022-08-09T08:40:09.206Z,31.50
2022-08-09T08:42:43.596Z,31.40
2022-08-09T08:45:14.379Z,31.60
2022-08-09T08:47:46.495Z,31.90
2022-08-09T08:50:19.669Z,31.90
2022-08-09T08:52:57.372Z,32.60
2022-08-09T08:55:24.666Z,32.10
2022-08-09T08:57:58.158Z,31.80
2022-08-09T09:00:34.753Z,32.10
2022-08-09T09:03:12.098Z,32.00
2022-08-09T09:05:59.925Z,32.20
2022-08-09T09:08:29.797Z,32.40
2022-08-09T09:10:44.852Z,32.70
2022-08-09T09:13:19.084Z,33.50
2022-08-09T09:15:49.202Z,33.80
2022-08-09T09:18:19.075Z,32.90
2022-08-09T09:20:48.607Z,33.00
2022-08-09T09:23:18.474Z,33.90
2022-08-09T09:26:02.451Z,31.40
2022-08-09T09:28:58.931Z,30.70
2022-08-09T09:30:55.955Z,32.70
2022-08-09T09:33:44.274Z,33.50
2022-08-09T09:36:20.238Z,33.90
2022-08-09T09:38:53.237Z,32.30
2022-08-09T09:41:33.025Z,30.70
2022-08-09T09:44:12.572Z,31.70
2022-08-09T09:46:41.776Z,33.40
2022-08-09T09:49:14.950Z,33.20
2022-08-09T09:51:47.853Z,33.90
2022-08-09T09:54:22.282Z,32.30
2022-08-09T09:58:00.925Z,32.00
2022-08-09T09:59:29.360Z,33.90
2022-08-09T10:02:02.603Z,34.30
2022-08-09T10:04:33.121Z,35.10
2022-08-09T10:07:09.837Z,35.20
2022-08-09T10:09:48.518Z,35.00
2022-08-09T10:12:28.559Z,34.60
2022-08-09T10:14:48.771Z,35.40
2022-08-09T10:17:39.428Z,35.00
2022-08-09T10:19:57.082Z,35.30
2022-08-09T10:22:34.176Z,36.30
2022-08-09T10:25:12.361Z,36.20
2022-08-09T10:27:45.476Z,35.30
2022-08-09T10:32:03.771Z,34.50
2022-08-09T10:32:45.076Z,35.60
2022-08-09T10:35:15.862Z,36.50
2022-08-09T10:37:46.577Z,36.50
2022-08-09T10:40:33.268Z,36.50
2022-08-09T10:42:47.393Z,37.30
2022-08-09T10:45:19.092Z,37.20
2022-08-09T10:48:16.849Z,37.50
2022-08-09T10:50:57.527Z,36.80
2022-08-09T10:53:54.108Z,37.10
2022-08-09T10:56:24.052Z,36.80
2022-08-09T10:58:58.202Z,37.40
2022-08-09T11:03:11.813Z,37.90
2022-08-09T11:04:27.995Z,37.90
2022-08-09T11:06:44.703Z,37.70
2022-08-09T11:09:20.271Z,38.10
2022-08-09T11:11:59.479Z,37.70
2022-08-09T11:14:38.770Z,37.20
2022-08-09T11:17:19.605Z,38.20
2022-08-09T11:20:22.791Z,38.40
2022-08-09T11:22:45.304Z,38.40
2022-08-09T11:25:19.217Z,37.30
2022-08-09T11:28:03.745Z,35.50
2022-08-09T11:30:33.363Z,36.10
2022-08-09T11:33:20.585Z,35.90
2022-08-09T11:35:58.114Z,36.70
2022-08-09T11:38:34.083Z,37.00
2022-08-09T11:41:16.025Z,36.60
2022-08-09T11:43:52.486Z,37.10
2022-08-09T11:46:33.389Z,37.60
2022-08-09T11:48:55.367Z,37.90
2022-08-09T11:53:02.474Z,35.70
2022-08-09T11:54:28.902Z,36.00
2022-08-09T11:56:50.715Z,35.70
2022-08-09T11:59:33.569Z,36.40
2022-08-09T12:02:17.699Z,38.00
2022-08-09T12:04:37.383Z,38.70
2022-08-09T12:07:08.492Z,38.20
2022-08-09T12:09:38.999Z,38.20
2022-08-09T12:12:12.921Z,37.70
2022-08-09T12:15:08.244Z,37.30
2022-08-09T12:17:28.022Z,36.40
2022-08-09T12:19:50.687Z,37.70
2022-08-09T12:22:20.589Z,37.90
2022-08-09T12:24:50.011Z,38.30
2022-08-09T12:29:14.151Z,38.80
2022-08-09T12:30:01.992Z,38.80
2022-08-09T12:32:28.614Z,38.60
2022-08-09T12:35:05.391Z,39.50
2022-08-09T12:37:49.655Z,38.10
2022-08-09T12:40:12.184Z,38.40
2022-08-09T12:42:45.938Z,36.60
2022-08-09T12:45:34.006Z,37.40
2022-08-09T12:47:50.307Z,37.90
2022-08-09T12:50:23.502Z,37.70
2022-08-09T12:53:17.786Z,37.70
2022-08-09T12:56:16.242Z,37.20
2022-08-09T12:58:03.505Z,38.10
2022-08-09T13:00:34.697Z,37.50
2022-08-09T13:03:09.941Z,36.40
2022-08-09T13:05:51.633Z,37.30
2022-08-09T13:08:40.110Z,37.70
2022-08-09T13:10:58.630Z,37.90
2022-08-09T13:14:40.563Z,37.50
2022-08-09T13:16:17.650Z,37.40
2022-08-09T13:18:49.773Z,37.90
2022-08-09T13:22:37.482Z,37.70
2022-08-09T13:24:41.933Z,38.10
2022-08-09T13:26:42.664Z,36.80
2022-08-09T13:29:17.949Z,36.90
2022-08-09T13:32:20.073Z,36.90
2022-08-09T13:34:41.622Z,37.00
2022-08-09T13:37:12.117Z,36.90
2022-08-09T13:41:54.897Z,37.10
2022-08-09T13:42:15.457Z,37.00
2022-08-09T13:44:48.653Z,37.00
2022-08-09T13:47:33.597Z,36.90
2022-08-09T13:49:57.620Z,36.30
2022-08-09T13:52:21.423Z,36.30
2022-08-09T13:54:58.933Z,36.40
2022-08-09T13:57:36.575Z,37.80
2022-08-09T13:59:53.688Z,37.90
2022-08-09T14:02:25.785Z,38.00
2022-08-09T14:05:00.040Z,38.40
2022-08-09T14:07:26.516Z,38.80
2022-08-09T14:09:58.115Z,39.20
2022-08-09T14:12:27.618Z,39.50
2022-08-09T14:14:57.262Z,39.70
2022-08-09T14:17:27.220Z,39.50
2022-08-09T14:19:58.539Z,39.30
2022-08-09T14:22:28.660Z,38.50
2022-08-09T14:24:58.213Z,38.90
2022-08-09T14:27:28.429Z,38.90
2022-08-09T14:30:35.476Z,39.00
2022-08-09T14:32:31.772Z,39.10
2022-08-09T14:35:02.270Z,37.20
2022-08-09T14:37:41.347Z,37.70
2022-08-09T14:40:05.220Z,37.70
2022-08-09T14:42:34.655Z,37.40
2022-08-09T14:46:46.626Z,37.70
2022-08-09T14:47:44.714Z,37.70
2022-08-09T14:50:10.998Z,37.30
2022-08-09T14:52:40.959Z,38.10
2022-08-09T14:55:11.002Z,38.00
2022-08-09T14:57:43.478Z,38.50
2022-08-09T15:00:12.895Z,38.30
2022-08-09T15:02:42.396Z,38.40
2022-08-09T15:05:13.576Z,38.30
2022-08-09T15:07:45.290Z,37.60
2022-08-09T15:10:16.241Z,37.40
2022-08-09T15:12:46.763Z,37.20
2022-08-09T15:15:17.428Z,37.70
2022-08-09T15:17:51.727Z,37.90
2022-08-09T15:21:54.801Z,36.90
2022-08-09T15:22:49.788Z,37.20
2022-08-09T15:25:39.254Z,37.50
2022-08-09T15:27:55.254Z,36.70
2022-08-09T15:30:59.765Z,36.10
2022-08-09T15:32:55.646Z,37.00
2022-08-09T15:35:43.971Z,36.90
2022-08-09T15:38:10.932Z,36.80
2022-08-09T15:40:32.047Z,36.90
2022-08-09T15:42:59.601Z,36.60
2022-08-09T15:45:29.952Z,36.70
2022-08-09T15:48:05.610Z,36.60
2022-08-09T15:50:31.098Z,36.20
2022-08-09T15:53:06.536Z,35.80
2022-08-09T15:55:35.232Z,36.50
2022-08-09T15:58:04.691Z,36.60
2022-08-09T16:00:34.285Z,36.60
2022-08-09T16:03:04.948Z,36.50
2022-08-09T16:05:47.527Z,37.00
2022-08-09T16:08:05.788Z,37.20
2022-08-09T16:10:56.157Z,36.90
2022-08-09T16:13:20.758Z,36.60
2022-08-09T16:16:11.054Z,36.20
2022-08-09T16:18:12.243Z,36.10
2022-08-09T16:20:43.290Z,35.90
2022-08-09T16:23:13.612Z,35.80
2022-08-09T16:25:44.763Z,35.80
2022-08-09T16:28:15.846Z,35.70
2022-08-09T16:30:58.516Z,36.10
2022-08-09T16:33:18.478Z,36.30
2022-08-09T16:35:56.775Z,36.20
2022-08-09T16:38:20.879Z,36.00
2022-08-09T16:40:52.167Z,35.90
2022-08-09T16:43:22.460Z,36.10
2022-08-09T16:45:53.706Z,35.70
2022-08-09T16:48:38.090Z,35.60
2022-08-09T16:50:59.603Z,35.60
2022-08-09T16:53:34.200Z,35.60
2022-08-09T16:56:03.595Z,35.50
2022-08-09T16:58:29.058Z,35.60
2022-08-09T17:01:00.317Z,35.70
2022-08-09T17:03:29.959Z,35.40
2022-08-09T17:06:08.549Z,35.40
2022-08-09T17:08:46.924Z,35.30
2022-08-09T17:11:02.369Z,35.50
2022-08-09T17:13:34.371Z,35.50
2022-08-09T17:16:03.716Z,35.60
2022-08-09T17:18:33.893Z,35.50
2022-08-09T17:21:05.310Z,35.50
2022-08-09T17:23:37.156Z,35.40
2022-08-09T17:26:07.760Z,35.30
2022-08-09T17:28:37.260Z,35.20
2022-08-09T17:31:07.168Z,35.00
2022-08-09T17:33:38.073Z,34.80
2022-08-09T17:36:09.087Z,34.70
2022-08-09T17:38:41.286Z,34.80
2022-08-09T17:41:11.324Z,34.90
2022-08-09T17:43:46.970Z,34.80
2022-08-09T17:46:13.719Z,34.70
2022-08-09T17:48:51.777Z,34.70
2022-08-09T17:51:18.581Z,34.60
2022-08-09T17:53:53.456Z,34.60
2022-08-09T17:56:27.966Z,34.50
2022-08-09T17:59:09.583Z,34.30
2022-08-09T18:02:06.145Z,34.30
2022-08-09T18:04:06.583Z,34.30
2022-08-09T18:06:37.821Z,34.30
2022-08-09T18:09:08.666Z,34.20
2022-08-09T18:12:05.047Z,34.10
2022-08-09T18:14:14.845Z,34.00
2022-08-09T18:16:48.887Z,34.10
2022-08-09T18:20:56.287Z,34.00
2022-08-09T18:21:44.553Z,33.90
2022-08-09T18:24:15.672Z,33.80
2022-08-09T18:26:49.405Z,33.70
2022-08-09T18:30:42.771Z,33.70
2022-08-09T18:31:55.254Z,33.70
2022-08-09T18:34:20.519Z,33.50
2022-08-09T18:36:53.434Z,33.40
2022-08-09T18:39:24.667Z,33.40
2022-08-09T18:41:55.372Z,33.30
2022-08-09T18:44:26.046Z,33.30
2022-08-09T18:47:08.471Z,33.20
2022-08-09T18:49:32.317Z,33.20
2022-08-09T18:52:00.137Z,33.20
2022-08-09T18:54:30.614Z,33.00
2022-08-09T18:57:06.019Z,32.90
2022-08-09T18:59:48.457Z,32.90
2022-08-09T19:02:07.491Z,32.80
2022-08-09T19:04:36.907Z,32.80
2022-08-09T19:07:07.140Z,32.70
2022-08-09T19:10:17.128Z,32.70
2022-08-09T19:12:09.751Z,32.60
2022-08-09T19:14:40.454Z,32.40
2022-08-09T19:17:11.622Z,32.40
2022-08-09T19:19:43.269Z,32.30
2022-08-09T19:22:12.880Z,32.20
2022-08-09T19:25:09.621Z,32.20
2022-08-09T19:27:15.437Z,32.00
2022-08-09T19:30:20.939Z,32.00
2022-08-09T19:32:17.477Z,31.90
2022-08-09T19:34:49.723Z,31.80
2022-08-09T19:37:18.575Z,31.70
2022-08-09T19:40:04.761Z,31.70
2022-08-09T19:42:28.278Z,31.60
2022-08-09T19:44:53.028Z,31.50
2022-08-09T19:47:23.956Z,31.40
2022-08-09T19:50:10.286Z,31.30
2022-08-09T19:52:27.397Z,31.30
2022-08-09T19:54:58.957Z,31.20
2022-08-09T19:57:28.859Z,31.20
2022-08-09T20:00:06.907Z,31.10
2022-08-09T20:04:11.490Z,31.10
2022-08-09T20:05:01.210Z,31.00
2022-08-09T20:07:33.843Z,31.00
2022-08-09T20:10:06.749Z,30.90
2022-08-09T20:12:37.399Z,30.90
2022-08-09T20:16:31.910Z,30.90
2022-08-09T20:17:48.549Z,30.80
2022-08-09T20:20:09.965Z,30.70
2022-08-09T20:22:44.537Z,30.70
2022-08-09T20:25:13.665Z,30.60
2022-08-09T20:27:44.734Z,30.60
2022-08-09T20:30:14.771Z,30.60
2022-08-09T20:32:52.053Z,30.50
2022-08-09T20:35:19.617Z,30.40
2022-08-09T20:38:22.564Z,30.40
2022-08-09T20:40:26.777Z,30.30
2022-08-09T20:42:59.393Z,30.20
2022-08-09T20:46:00.532Z,30.20
2022-08-09T20:47:55.066Z,30.10
2022-08-09T20:50:47.270Z,30.10
2022-08-09T20:52:56.153Z,30.00
2022-08-09T20:55:27.443Z,30.00
2022-08-09T20:58:05.465Z,29.90
2022-08-09T21:00:31.624Z,29.90
2022-08-09T21:02:59.723Z,29.90
2022-08-09T21:05:54.618Z,29.80
2022-08-09T21:08:01.620Z,29.80
2022-08-09T21:10:31.593Z,29.70
2022-08-09T21:13:03.576Z,29.70
2022-08-09T21:15:35.550Z,29.70
2022-08-09T21:18:29.568Z,29.60
2022-08-09T21:20:37.479Z,29.50
2022-08-09T21:23:09.296Z,29.50
2022-08-09T21:25:55.436Z,29.40
2022-08-09T21:28:33.721Z,29.40
2022-08-09T21:30:58.741Z,29.40
2022-08-09T21:33:28.456Z,29.30
2022-08-09T21:35:59.774Z,29.30
2022-08-09T21:38:31.690Z,29.20
2022-08-09T21:41:02.098Z,29.20
2022-08-09T21:43:56.670Z,29.10
2022-08-09T21:46:03.207Z,29.00
2022-08-09T21:48:34.623Z,29.00
2022-08-09T21:51:04.147Z,29.00
2022-08-09T21:53:40.639Z,28.90
2022-08-09T21:56:06.824Z,28.90
2022-08-09T21:58:38.801Z,28.90
2022-08-09T22:01:11.986Z,28.80
2022-08-09T22:03:48.539Z,28.70
2022-08-09T22:06:13.742Z,28.80
2022-08-09T22:08:44.125Z,28.70
2022-08-09T22:12:06.078Z,28.40
2022-08-09T22:13:45.900Z,28.40
2022-08-09T22:16:15.534Z,28.40
2022-08-09T22:18:54.265Z,28.40
2022-08-09T22:21:21.953Z,28.50
2022-08-09T22:24:01.758Z,28.40
2022-08-09T22:26:23.486Z,28.30
2022-08-09T22:28:54.187Z,28.40
2022-08-09T22:31:21.668Z,28.30
2022-08-09T22:33:55.501Z,28.30
2022-08-09T22:36:23.695Z,28.30
2022-08-09T22:38:53.710Z,28.20
2022-08-09T22:41:23.280Z,28.20
2022-08-09T22:44:03.582Z,28.10
2022-08-09T22:48:11.730Z,28.00
2022-08-09T22:48:55.413Z,28.00
2022-08-09T22:51:27.321Z,27.90
2022-08-09T22:54:02.334Z,27.90
2022-08-09T22:56:33.749Z,27.90
2022-08-09T22:59:00.845Z,27.90
2022-08-09T23:01:32.128Z,27.80
2022-08-09T23:04:07.208Z,27.80
2022-08-09T23:06:52.487Z,27.80
2022-08-09T23:09:22.199Z,27.70
2022-08-09T23:11:51.727Z,27.70
2022-08-09T23:14:30.269Z,27.70
2022-08-09T23:16:52.717Z,27.60
2022-08-09T23:19:22.308Z,27.60
2022-08-09T23:21:51.929Z,27.50
2022-08-09T23:24:22.144Z,27.40
2022-08-09T23:26:52.117Z,27.40
2022-08-09T23:29:21.770Z,27.20
2022-08-09T23:31:54.412Z,27.00
2022-08-09T23:34:22.792Z,27.10
2022-08-09T23:36:52.299Z,27.10
2022-08-09T23:39:22.272Z,26.90
2022-08-09T23:41:51.977Z,26.90
2022-08-09T23:44:21.612Z,27.00
2022-08-09T23:46:56.033Z,27.10
2022-08-09T23:49:24.642Z,27.10
2022-08-09T23:51:54.639Z,26.70
2022-08-09T23:54:26.556Z,26.80
2022-08-09T23:56:56.019Z,26.90
2022-08-09T23:59:28.787Z,27.10
